This is the latest recevied weather packets stored in our database for station/object VE2JOS. If no packets are shown the sender has not sent any weather packets the latest 10 day(s).
| Time | Temp. | Humidity | Pressure | Rain* | Wind** | Luminosity | Snow |
|---|---|---|---|---|---|---|---|
| 1778069722 | 7.78° C | 90% | - | 0.76 mm | - | - | - |
| 1778068542 | 7.78° C | 89% | - | 1.02 mm | - | - | - |
| 1778067923 | 7.78° C | 88% | - | 1.02 mm | - | - | - |
| 1778066723 | 7.78° C | 85% | - | 0.76 mm | - | - | - |
| 1778059523 | 10° C | 81% | - | 0 mm | - | - | - |
| 1778054722 | 10.56° C | 81% | - | 0 mm | - | - | - |
| 1778047522 | 11.67° C | 78% | - | 0 mm | - | - | - |
| 1778045122 | 12.78° C | 71% | - | 0 mm | - | - | - |
| 1778044522 | 12.78° C | 71% | - | 0 mm | - | - | - |
| 1778040362 | 13.33° C | 67% | - | 0 mm | - | - | - |
| 1778039122 | 13.33° C | 64% | - | 0 mm | - | - | - |
| 1778031322 | 15.56° C | 62% | - | 0 mm | - | - | - |
| 1778030722 | 15.56° C | 63% | - | 0 mm | - | - | - |
| 1778030142 | 15.56° C | 64% | - | 0 mm | - | - | - |
| 1778027122 | 16.11° C | 67% | - | 0 mm | - | - | - |
| 1778025322 | 17.22° C | 64% | - | 0.25 mm | - | - | - |
| 1778024722 | 17.22° C | 69% | - | 0.25 mm | - | - | - |
| 1778021122 | 18.33° C | 69% | - | 0 mm | - | - | - |
| 1778019322 | 18.89° C | 70% | - | 0 mm | - | - | - |
| 1778016322 | 18.89° C | 73% | - | 0 mm | - | - | - |
| 1778015122 | 18.33° C | 74% | - | 0.25 mm | - | - | - |
| 1778007922 | 23.89° C | 54% | - | 0 mm | - | - | - |
| 1778006122 | 23.33° C | 56% | - | 0 mm | - | - | - |
| 1778005522 | 23.89° C | 54% | - | 0 mm | - | - | - |
| 1778004962 | 23.89° C | 55% | - | 0 mm | - | - | - |
* Rain latest hour (hover to see other rain measurements)
** Current wind speed in m/s (hover to see current wind gust speed)